createdAt,value
2022-08-23T00:01:39.072Z,20.81
2022-08-23T00:04:13.807Z,20.78
2022-08-23T00:06:44.052Z,20.77
2022-08-23T00:09:13.207Z,20.77
2022-08-23T00:11:45.927Z,20.75
2022-08-23T00:14:18.492Z,20.73
2022-08-23T00:16:47.675Z,20.73
2022-08-23T00:19:19.845Z,20.71
2022-08-23T00:21:48.988Z,20.72
2022-08-23T00:24:19.925Z,20.71
2022-08-23T00:27:02.112Z,20.68
2022-08-23T00:29:34.036Z,20.69
2022-08-23T00:32:03.458Z,20.72
2022-08-23T00:34:33.221Z,20.74
2022-08-23T00:37:01.751Z,20.78
2022-08-23T00:39:30.366Z,20.78
2022-08-23T00:42:24.842Z,20.77
2022-08-23T00:45:13.581Z,20.77
2022-08-23T00:47:43.270Z,20.76
2022-08-23T00:50:24.484Z,20.73
2022-08-23T00:53:05.839Z,20.72
2022-08-23T00:55:36.288Z,20.71
2022-08-23T00:58:05.539Z,20.70
2022-08-23T01:00:34.226Z,20.69
2022-08-23T01:03:07.154Z,20.68
2022-08-23T01:05:47.695Z,20.67
2022-08-23T01:08:17.312Z,20.70
2022-08-23T01:10:51.669Z,20.71
2022-08-23T01:13:37.597Z,20.71
2022-08-23T01:16:11.045Z,20.76
2022-08-23T01:18:40.859Z,20.77
2022-08-23T01:21:26.464Z,20.78
2022-08-23T01:24:00.526Z,20.81
2022-08-23T01:26:32.031Z,20.82
2022-08-23T01:29:00.657Z,20.83
2022-08-23T01:31:29.835Z,20.83
2022-08-23T01:34:04.471Z,20.81
2022-08-23T01:36:34.216Z,20.85
2022-08-23T01:39:05.014Z,20.85
2022-08-23T01:41:33.890Z,20.87
2022-08-23T01:44:02.581Z,20.88
2022-08-23T01:46:31.055Z,20.88
2022-08-23T01:49:00.001Z,20.91
2022-08-23T01:51:28.453Z,20.92
2022-08-23T01:53:56.881Z,20.93
2022-08-23T01:56:39.254Z,20.92
2022-08-23T01:59:09.179Z,20.91
2022-08-23T02:01:38.758Z,20.90
2022-08-23T02:04:07.618Z,20.87
2022-08-23T02:06:36.184Z,20.85
2022-08-23T02:09:05.976Z,20.84
2022-08-23T02:11:48.730Z,20.83
2022-08-23T02:14:21.934Z,20.81
2022-08-23T02:17:03.663Z,20.80
2022-08-23T02:19:34.461Z,20.78
2022-08-23T02:22:03.544Z,20.78
2022-08-23T02:24:32.216Z,20.76
2022-08-23T02:27:06.160Z,20.76
2022-08-23T02:29:39.059Z,20.75
2022-08-23T02:32:09.678Z,20.74
2022-08-23T02:34:38.980Z,20.72
2022-08-23T02:37:08.162Z,20.72
2022-08-23T02:39:40.001Z,20.73
2022-08-23T02:42:11.571Z,20.71
2022-08-23T02:44:40.730Z,20.71
2022-08-23T02:47:09.297Z,20.70
2022-08-23T02:49:38.545Z,20.69
2022-08-23T02:52:08.496Z,20.67
2022-08-23T02:54:37.450Z,20.70
2022-08-23T02:57:06.964Z,20.71
2022-08-23T02:59:37.347Z,20.72
2022-08-23T03:02:05.964Z,20.75
2022-08-23T03:04:34.375Z,20.74
2022-08-23T03:07:02.777Z,20.72
2022-08-23T03:09:31.210Z,20.70
2022-08-23T03:11:59.677Z,20.68
2022-08-23T03:14:28.228Z,20.66
2022-08-23T03:16:58.499Z,20.63
2022-08-23T03:19:26.905Z,20.61
2022-08-23T03:21:55.460Z,20.59
2022-08-23T03:24:24.284Z,20.54
2022-08-23T03:26:52.711Z,20.52
2022-08-23T03:29:21.171Z,20.48
2022-08-23T03:31:50.702Z,20.47
2022-08-23T03:34:23.646Z,20.43
2022-08-23T03:36:52.051Z,20.41
2022-08-23T03:39:20.488Z,20.39
2022-08-23T03:41:49.346Z,20.38
2022-08-23T03:44:17.940Z,20.34
2022-08-23T03:46:46.428Z,20.32
2022-08-23T03:49:14.957Z,20.29
2022-08-23T03:51:44.763Z,20.29
2022-08-23T03:54:13.202Z,20.28
2022-08-23T03:56:53.581Z,20.25
2022-08-23T03:59:22.390Z,20.27
2022-08-23T04:01:50.866Z,20.27
2022-08-23T04:04:19.358Z,20.28
2022-08-23T04:06:49.535Z,20.27
2022-08-23T04:09:18.692Z,20.27
2022-08-23T04:11:47.057Z,20.26
2022-08-23T04:14:15.757Z,20.26
2022-08-23T04:16:44.529Z,20.26
2022-08-23T04:19:16.246Z,20.25
2022-08-23T04:21:49.733Z,20.24
2022-08-23T04:24:19.088Z,20.25
2022-08-23T04:26:49.461Z,20.25
2022-08-23T04:29:24.860Z,20.26
2022-08-23T04:32:05.620Z,20.28
2022-08-23T04:34:39.962Z,20.29
2022-08-23T04:37:10.980Z,20.31
2022-08-23T04:39:54.080Z,20.33
2022-08-23T04:42:23.802Z,20.31
2022-08-23T04:44:52.530Z,20.32
2022-08-23T04:47:21.474Z,20.34
2022-08-23T04:49:49.871Z,20.35
2022-08-23T04:52:19.891Z,20.37
2022-08-23T04:54:48.450Z,20.39
2022-08-23T04:57:17.228Z,20.39
2022-08-23T04:59:45.641Z,20.39
2022-08-23T05:02:15.011Z,20.39
2022-08-23T05:04:43.376Z,20.40
2022-08-23T05:07:11.959Z,20.40
2022-08-23T05:09:41.737Z,20.39
2022-08-23T05:12:10.281Z,20.41
2022-08-23T05:14:38.905Z,20.40
2022-08-23T05:17:07.920Z,20.42
2022-08-23T05:19:37.585Z,20.43
2022-08-23T05:22:12.819Z,20.44
2022-08-23T05:24:42.625Z,20.44
2022-08-23T05:27:13.675Z,20.46
2022-08-23T05:29:42.324Z,20.47
2022-08-23T05:32:10.780Z,20.50
2022-08-23T05:34:39.429Z,20.52
2022-08-23T05:37:07.868Z,20.53
2022-08-23T05:39:37.350Z,20.54
2022-08-23T05:42:08.964Z,20.51
2022-08-23T05:44:37.910Z,20.53
2022-08-23T05:47:11.175Z,20.56
2022-08-23T05:49:41.125Z,20.57
2022-08-23T05:52:12.993Z,20.58
2022-08-23T05:54:42.132Z,20.58
2022-08-23T05:57:12.068Z,20.57
2022-08-23T05:59:42.026Z,20.58
2022-08-23T06:02:11.257Z,20.59
2022-08-23T06:04:39.767Z,20.60
2022-08-23T06:07:09.899Z,20.61
2022-08-23T06:09:38.694Z,20.59
2022-08-23T06:12:07.374Z,20.58
2022-08-23T06:14:37.203Z,20.59
2022-08-23T06:17:05.927Z,20.60
2022-08-23T06:19:35.246Z,20.62
2022-08-23T06:22:03.732Z,20.64
2022-08-23T06:24:32.209Z,20.64
2022-08-23T06:27:00.703Z,20.67
2022-08-23T06:29:29.642Z,20.68
2022-08-23T06:31:59.381Z,20.73
2022-08-23T06:34:33.434Z,20.79
2022-08-23T06:37:04.928Z,20.86
2022-08-23T06:39:37.352Z,20.92
2022-08-23T06:42:36.539Z,20.97
2022-08-23T06:44:58.423Z,21.08
2022-08-23T06:47:28.597Z,21.14
2022-08-23T06:49:58.196Z,21.17
2022-08-23T06:52:27.621Z,21.21
2022-08-23T06:54:57.606Z,21.25
2022-08-23T06:57:26.548Z,21.34
2022-08-23T06:59:55.086Z,21.41
2022-08-23T07:02:24.182Z,21.49
2022-08-23T07:04:55.911Z,21.56
2022-08-23T07:07:24.702Z,21.64
2022-08-23T07:10:11.054Z,21.73
2022-08-23T07:12:43.687Z,21.83
2022-08-23T07:15:13.555Z,21.91
2022-08-23T07:17:42.087Z,21.95
2022-08-23T07:20:12.635Z,21.98
2022-08-23T07:22:41.205Z,22.02
2022-08-23T07:25:10.148Z,22.09
2022-08-23T07:27:39.530Z,22.18
2022-08-23T07:30:09.688Z,22.28
2022-08-23T07:32:38.193Z,22.42
2022-08-23T07:35:08.216Z,22.51
2022-08-23T07:37:38.425Z,22.61
2022-08-23T07:40:09.233Z,22.71
2022-08-23T07:42:37.693Z,22.84
2022-08-23T07:45:10.011Z,22.97
2022-08-23T07:47:38.629Z,23.11
2022-08-23T07:50:08.672Z,23.26
2022-08-23T07:52:38.740Z,23.40
2022-08-23T07:55:08.919Z,23.52
2022-08-23T07:57:37.591Z,23.61
2022-08-23T08:00:07.996Z,23.67
2022-08-23T08:02:36.490Z,23.70
2022-08-23T08:05:05.710Z,23.76
2022-08-23T08:07:37.624Z,23.77
2022-08-23T08:10:09.326Z,23.80
2022-08-23T08:12:38.228Z,23.87
2022-08-23T08:15:08.002Z,23.88
2022-08-23T08:17:36.406Z,23.94
2022-08-23T08:20:06.697Z,23.97
2022-08-23T08:22:35.494Z,23.97
2022-08-23T08:25:03.995Z,23.96
2022-08-23T08:27:34.015Z,23.96
2022-08-23T08:30:04.802Z,23.92
2022-08-23T08:32:33.417Z,23.82
2022-08-23T08:35:02.466Z,23.72
2022-08-23T08:37:32.130Z,23.64
2022-08-23T08:40:01.373Z,23.59
2022-08-23T08:42:57.350Z,23.56
2022-08-23T08:45:34.129Z,23.56
2022-08-23T08:48:13.585Z,23.56
2022-08-23T08:50:48.931Z,23.56
2022-08-23T08:53:25.504Z,23.52
2022-08-23T08:55:59.599Z,23.52
2022-08-23T08:58:42.665Z,23.49
2022-08-23T09:01:11.223Z,23.49
2022-08-23T09:03:43.082Z,23.49
2022-08-23T09:06:23.336Z,23.47
2022-08-23T09:09:14.305Z,23.45
2022-08-23T09:11:59.695Z,23.44
2022-08-23T09:14:47.103Z,23.37
2022-08-23T09:17:25.212Z,23.32
2022-08-23T09:19:57.856Z,23.25
2022-08-23T09:22:35.641Z,23.15
2022-08-23T09:25:10.314Z,23.16
2022-08-23T09:27:39.471Z,23.16
2022-08-23T09:30:13.020Z,23.14
2022-08-23T09:32:45.539Z,23.15
2022-08-23T09:35:18.366Z,23.15
2022-08-23T09:38:16.335Z,23.15
2022-08-23T09:40:50.637Z,23.18
2022-08-23T09:43:26.194Z,23.18
2022-08-23T09:46:00.941Z,23.21
2022-08-23T09:48:41.594Z,23.24
2022-08-23T09:51:21.026Z,23.26
2022-08-23T09:54:03.695Z,23.29
2022-08-23T09:56:36.760Z,23.35
2022-08-23T09:59:20.596Z,23.38
2022-08-23T10:02:00.703Z,23.43
2022-08-23T10:04:43.999Z,23.48
2022-08-23T10:07:36.428Z,23.55
2022-08-23T10:10:29.416Z,23.58
2022-08-23T10:12:59.179Z,23.66
2022-08-23T10:15:49.448Z,23.72
2022-08-23T10:18:36.444Z,23.82
2022-08-23T10:21:12.018Z,23.95
2022-08-23T10:23:52.227Z,24.06
2022-08-23T10:26:30.811Z,24.19
2022-08-23T10:29:27.499Z,24.35
2022-08-23T10:32:06.398Z,24.51
2022-08-23T10:34:55.767Z,24.67
2022-08-23T10:37:50.996Z,24.79
2022-08-23T10:40:29.496Z,24.99
2022-08-23T10:43:14.929Z,25.17
2022-08-23T10:45:47.658Z,25.36
2022-08-23T10:48:27.449Z,25.49
2022-08-23T10:51:02.397Z,25.59
2022-08-23T10:53:46.237Z,25.74
2022-08-23T10:56:19.331Z,25.98
2022-08-23T10:58:52.084Z,26.14
2022-08-23T11:01:26.506Z,26.30
2022-08-23T11:04:04.085Z,26.48
2022-08-23T11:06:52.224Z,26.60
2022-08-23T11:09:52.222Z,26.64
2022-08-23T11:12:27.315Z,26.71
2022-08-23T11:15:26.007Z,26.63
2022-08-23T11:18:09.093Z,26.54
2022-08-23T11:21:11.206Z,26.51
2022-08-23T11:23:55.533Z,26.62
2022-08-23T11:27:06.585Z,26.72
2022-08-23T11:29:43.528Z,26.84
2022-08-23T11:32:33.308Z,26.96
2022-08-23T11:35:23.861Z,27.07
2022-08-23T11:37:59.861Z,27.18
2022-08-23T11:43:43.511Z,27.44
2022-08-23T11:46:32.911Z,27.44
2022-08-23T11:49:32.059Z,27.46
2022-08-23T11:52:16.989Z,27.42
2022-08-23T11:55:31.801Z,27.38
2022-08-23T11:58:19.729Z,27.43
2022-08-23T12:01:07.663Z,27.49
2022-08-23T12:03:53.968Z,27.63
2022-08-23T12:06:50.537Z,27.88
2022-08-23T12:09:54.249Z,28.27
2022-08-23T12:12:40.069Z,28.71
2022-08-23T12:15:13.449Z,29.53
2022-08-23T12:18:18.309Z,30.51
2022-08-23T12:20:50.805Z,31.43
2022-08-23T12:23:22.247Z,32.10
2022-08-23T12:26:06.047Z,32.54
2022-08-23T12:28:43.578Z,32.65
2022-08-23T12:31:28.805Z,32.47
2022-08-23T12:34:18.696Z,32.24
2022-08-23T12:36:58.214Z,32.05
2022-08-23T12:39:32.790Z,31.91
2022-08-23T12:42:10.779Z,31.96
2022-08-23T12:44:39.436Z,32.08
2022-08-23T12:47:16.912Z,32.12
2022-08-23T12:49:58.645Z,32.16
2022-08-23T12:52:32.852Z,32.66
2022-08-23T12:55:01.672Z,33.26
2022-08-23T12:57:37.610Z,33.91
2022-08-23T13:00:18.975Z,34.59
2022-08-23T13:02:57.561Z,35.19
2022-08-23T13:05:41.780Z,35.64
2022-08-23T13:08:15.082Z,35.83
2022-08-23T13:10:46.297Z,35.91
2022-08-23T13:13:20.285Z,35.71
2022-08-23T13:15:54.022Z,35.25
2022-08-23T13:18:33.481Z,34.79
2022-08-23T13:21:39.534Z,34.46
2022-08-23T13:24:38.598Z,34.54
2022-08-23T13:27:23.651Z,34.64
2022-08-23T13:29:59.350Z,34.55
2022-08-23T13:32:36.798Z,34.46
2022-08-23T13:35:32.362Z,34.54
2022-08-23T13:38:21.568Z,34.54
2022-08-23T13:41:02.942Z,34.40
2022-08-23T13:43:38.491Z,33.98
2022-08-23T13:46:18.050Z,33.70
2022-08-23T13:48:55.868Z,33.62
2022-08-23T13:51:37.096Z,33.18
2022-08-23T13:54:11.562Z,32.77
2022-08-23T13:56:47.223Z,32.40
2022-08-23T13:59:31.114Z,31.90
2022-08-23T14:02:02.699Z,31.49
2022-08-23T14:04:31.231Z,31.00
2022-08-23T14:06:59.690Z,30.49
2022-08-23T14:09:29.672Z,29.97
2022-08-23T14:12:04.033Z,29.58
2022-08-23T14:14:35.779Z,29.29
2022-08-23T14:17:05.174Z,28.96
2022-08-23T14:22:26.907Z,28.35
2022-08-23T14:24:56.671Z,28.15
2022-08-23T14:27:25.197Z,27.89
2022-08-23T14:29:54.418Z,27.60
2022-08-23T14:32:22.847Z,27.37
2022-08-23T14:34:51.330Z,27.21
2022-08-23T14:38:00.464Z,27.10
2022-08-23T14:40:11.336Z,27.02
2022-08-23T14:42:39.803Z,26.95
2022-08-23T14:45:10.469Z,26.82
2022-08-23T14:47:39.133Z,26.68
2022-08-23T14:50:12.533Z,26.58
2022-08-23T14:52:45.742Z,26.51
2022-08-23T14:55:17.327Z,26.44
2022-08-23T14:57:45.720Z,26.49
2022-08-23T15:00:15.905Z,26.48
2022-08-23T15:02:45.892Z,26.46
2022-08-23T15:05:15.650Z,26.47
2022-08-23T15:07:44.632Z,26.56
2022-08-23T15:15:54.804Z,26.71
2022-08-23T15:18:23.410Z,26.68
2022-08-23T15:20:52.478Z,26.60
2022-08-23T15:23:21.661Z,26.53
2022-08-23T15:25:52.190Z,26.51
2022-08-23T15:28:23.060Z,26.52
2022-08-23T15:30:52.522Z,26.54
2022-08-23T15:33:26.842Z,26.60
2022-08-23T15:36:01.893Z,26.57
2022-08-23T15:38:32.824Z,26.50
2022-08-23T15:41:02.725Z,26.44
2022-08-23T15:43:34.683Z,26.46
2022-08-23T15:46:07.565Z,26.45
2022-08-23T15:48:39.274Z,26.45
2022-08-23T15:51:08.143Z,26.45
2022-08-23T15:53:39.445Z,26.33
2022-08-23T15:56:12.929Z,26.18
2022-08-23T15:58:42.126Z,26.13
2022-08-23T16:01:12.111Z,26.13
2022-08-23T16:03:43.466Z,26.13
2022-08-23T16:06:13.587Z,26.15
2022-08-23T16:08:47.149Z,26.17
2022-08-23T16:11:16.996Z,26.18
2022-08-23T16:13:47.922Z,26.23
2022-08-23T16:16:22.435Z,26.32
2022-08-23T16:18:53.609Z,26.38
2022-08-23T16:21:23.292Z,26.39
2022-08-23T16:23:51.859Z,26.37
2022-08-23T16:26:34.588Z,26.28
2022-08-23T16:29:06.194Z,26.16
2022-08-23T16:31:38.874Z,26.01
2022-08-23T16:34:11.780Z,25.86
2022-08-23T16:36:43.487Z,25.69
2022-08-23T16:39:12.801Z,25.53
2022-08-23T16:41:43.026Z,25.39
2022-08-23T16:44:11.571Z,25.29
2022-08-23T16:46:42.966Z,25.18
2022-08-23T16:49:12.595Z,25.06
2022-08-23T16:51:41.384Z,24.97
2022-08-23T16:54:10.172Z,24.88
2022-08-23T16:56:41.946Z,24.80
2022-08-23T16:59:12.621Z,24.74
2022-08-23T17:01:47.078Z,24.66
2022-08-23T17:04:15.825Z,24.63
2022-08-23T17:06:44.482Z,24.59
2022-08-23T17:09:13.276Z,24.53
2022-08-23T17:11:45.661Z,24.45
2022-08-23T17:14:14.571Z,24.39
2022-08-23T17:16:45.134Z,24.31
2022-08-23T17:19:14.851Z,24.24
2022-08-23T17:21:44.963Z,24.18
2022-08-23T17:24:13.405Z,24.11
2022-08-23T17:26:43.250Z,24.06
2022-08-23T17:29:12.579Z,24.02
2022-08-23T17:31:41.751Z,23.98
2022-08-23T17:34:10.343Z,23.95
2022-08-23T17:36:46.186Z,23.91
2022-08-23T17:39:20.275Z,23.89
2022-08-23T17:41:50.213Z,23.84
2022-08-23T17:44:20.431Z,23.80
2022-08-23T17:46:49.875Z,23.78
2022-08-23T17:49:20.244Z,23.77
2022-08-23T17:51:49.376Z,23.77
2022-08-23T17:54:18.542Z,23.78
2022-08-23T17:56:50.411Z,23.78
2022-08-23T17:59:21.346Z,23.77
2022-08-23T18:01:50.089Z,23.76
2022-08-23T18:04:18.650Z,23.75
2022-08-23T18:06:47.762Z,23.76
2022-08-23T18:09:16.593Z,23.74
2022-08-23T18:11:45.276Z,23.73
2022-08-23T18:14:13.723Z,23.73
2022-08-23T18:16:45.607Z,23.72
2022-08-23T18:19:15.050Z,23.70
2022-08-23T18:21:45.133Z,23.69
2022-08-23T18:24:14.712Z,23.68
2022-08-23T18:27:02.398Z,23.67
2022-08-23T18:29:34.714Z,23.63
2022-08-23T18:32:07.314Z,23.61
2022-08-23T18:34:37.091Z,23.61
2022-08-23T18:37:06.070Z,23.58
2022-08-23T18:39:35.143Z,23.56
2022-08-23T18:42:06.709Z,23.55
2022-08-23T18:44:35.164Z,23.56
2022-08-23T18:47:05.996Z,23.53
2022-08-23T18:49:36.500Z,23.48
2022-08-23T18:52:06.007Z,23.49
2022-08-23T18:54:34.854Z,23.47
2022-08-23T18:57:03.946Z,23.47
2022-08-23T18:59:32.814Z,23.47
2022-08-23T19:02:01.742Z,23.45
2022-08-23T19:04:32.241Z,23.44
2022-08-23T19:07:01.108Z,23.45
2022-08-23T19:09:30.122Z,23.43
2022-08-23T19:12:00.639Z,23.43
2022-08-23T19:14:30.006Z,23.44
2022-08-23T19:16:58.841Z,23.44
2022-08-23T19:19:28.128Z,23.45
2022-08-23T19:21:58.425Z,23.45
2022-08-23T19:24:29.097Z,23.46
2022-08-23T19:26:57.996Z,23.46
2022-08-23T19:29:27.098Z,23.46
2022-08-23T19:31:55.938Z,23.46
2022-08-23T19:34:24.753Z,23.46
2022-08-23T19:37:00.667Z,23.46
2022-08-23T19:39:32.301Z,23.43
2022-08-23T19:42:01.233Z,23.45
2022-08-23T19:44:31.418Z,23.44
2022-08-23T19:47:00.347Z,23.43
2022-08-23T19:49:29.645Z,23.41
2022-08-23T19:51:58.680Z,23.39
2022-08-23T19:54:28.624Z,23.34
2022-08-23T19:57:01.375Z,23.30
2022-08-23T19:59:35.143Z,23.25
2022-08-23T20:02:04.686Z,23.24
2022-08-23T20:04:35.340Z,23.19
2022-08-23T20:07:05.648Z,23.18
2022-08-23T20:09:35.287Z,23.16
2022-08-23T20:12:06.417Z,23.15
2022-08-23T20:14:35.380Z,23.15
2022-08-23T20:17:07.810Z,23.18
2022-08-23T20:19:36.573Z,23.22
2022-08-23T20:22:23.598Z,23.25
2022-08-23T20:24:53.120Z,23.30
2022-08-23T20:27:30.616Z,23.35
2022-08-23T20:30:01.472Z,23.40
2022-08-23T20:32:31.556Z,23.44
2022-08-23T20:35:00.768Z,23.47
2022-08-23T20:37:29.721Z,23.49
2022-08-23T20:39:58.325Z,23.52
2022-08-23T20:42:28.607Z,23.55
2022-08-23T20:44:57.236Z,23.59
2022-08-23T20:47:25.774Z,23.62
2022-08-23T20:49:54.397Z,23.66
2022-08-23T20:52:22.823Z,23.70
2022-08-23T20:54:52.207Z,23.71
2022-08-23T20:57:20.770Z,23.74
2022-08-23T20:59:50.652Z,23.75
2022-08-23T21:02:19.270Z,23.76
2022-08-23T21:04:47.891Z,23.78
2022-08-23T21:07:16.421Z,23.80
2022-08-23T21:09:45.046Z,23.82
2022-08-23T21:12:13.679Z,23.86
2022-08-23T21:14:42.134Z,23.90
2022-08-23T21:17:12.066Z,23.93
2022-08-23T21:19:40.564Z,23.96
2022-08-23T21:22:09.006Z,23.98
2022-08-23T21:24:38.535Z,24.01
2022-08-23T21:27:09.616Z,24.04
2022-08-23T21:29:38.685Z,24.05
2022-08-23T21:32:07.615Z,24.07
2022-08-23T21:34:37.676Z,24.10
2022-08-23T21:37:06.577Z,24.12
2022-08-23T21:39:34.982Z,24.12
2022-08-23T21:42:14.184Z,24.13
2022-08-23T21:44:43.802Z,24.11
2022-08-23T21:47:12.524Z,24.13
2022-08-23T21:49:42.342Z,24.12
2022-08-23T21:52:10.753Z,24.13
2022-08-23T21:54:43.392Z,24.13
2022-08-23T21:57:12.365Z,24.14
2022-08-23T21:59:41.420Z,24.14
2022-08-23T22:02:10.134Z,24.15
2022-08-23T22:04:38.688Z,24.15
2022-08-23T22:07:08.475Z,24.15
2022-08-23T22:09:36.968Z,24.15
2022-08-23T22:12:06.442Z,24.11
2022-08-23T22:14:35.428Z,24.14
2022-08-23T22:17:03.988Z,24.13
2022-08-23T22:19:32.701Z,24.12
2022-08-23T22:22:01.151Z,24.10
2022-08-23T22:24:31.635Z,24.10
2022-08-23T22:27:00.005Z,24.09
2022-08-23T22:29:28.959Z,24.08
2022-08-23T22:31:57.436Z,24.07
2022-08-23T22:34:26.070Z,24.05
2022-08-23T22:36:55.981Z,24.02
2022-08-23T22:39:24.824Z,24.00
2022-08-23T22:41:55.485Z,23.96
2022-08-23T22:44:24.011Z,23.95
2022-08-23T22:46:52.831Z,23.94
2022-08-23T22:49:21.267Z,23.91
2022-08-23T22:51:55.093Z,23.89
2022-08-23T22:54:24.753Z,23.87
2022-08-23T22:56:55.589Z,23.83
2022-08-23T22:59:27.592Z,23.82
2022-08-23T23:02:00.952Z,23.79
2022-08-23T23:04:33.815Z,23.78
2022-08-23T23:07:02.751Z,23.76
2022-08-23T23:09:30.394Z,23.76
2022-08-23T23:12:00.273Z,23.76
2022-08-23T23:14:28.852Z,23.76
2022-08-23T23:16:57.443Z,23.77
2022-08-23T23:19:43.256Z,23.78
2022-08-23T23:22:14.496Z,23.80
2022-08-23T23:24:42.889Z,23.83
2022-08-23T23:27:12.782Z,23.84
2022-08-23T23:29:42.165Z,23.85
2022-08-23T23:32:10.629Z,23.87
2022-08-23T23:34:39.064Z,23.87
2022-08-23T23:37:07.536Z,23.87
2022-08-23T23:39:35.929Z,23.86
2022-08-23T23:42:04.565Z,23.86
2022-08-23T23:44:34.515Z,23.86
2022-08-23T23:47:03.598Z,23.85
2022-08-23T23:49:33.674Z,23.88
2022-08-23T23:52:04.319Z,23.88
2022-08-23T23:54:33.953Z,23.89
2022-08-23T23:57:02.754Z,23.90
2022-08-23T23:59:31.122Z,23.92
